Time,TemperatureF,DewpointF,PressureIn,WindDirection,WindDirectionDegrees,WindSpeedMPH,WindSpeedGustMPH,Humidity,HourlyPrecipIn,Conditions,Clouds,dailyrainin,SoftwareType,DateUTC
2013-09-04 00:02:00,77.4,54.4,29.77,WNW,300,4.0,8.0,45,0.00,,,0.00,WUHU216DAVISVP2,2013-09-04 07:02:00,
2013-09-04 00:07:00,78.0,53.0,29.77,North,350,7.0,7.0,42,0.00,,,0.00,WUHU216DAVISVP2,2013-09-04 07:07:00,
2013-09-04 00:12:00,76.7,52.5,29.77,North,360,4.0,7.0,43,0.00,,,0.00,WUHU216DAVISVP2,2013-09-04 07:12:00,
2013-09-04 00:17:00,75.7,51.6,29.77,North,360,0.0,7.0,43,0.00,,,0.00,WUHU216DAVISVP2,2013-09-04 07:17:00,
2013-09-04 00:22:00,75.5,52.0,29.78,North,360,2.0,7.0,44,0.00,,,0.00,WUHU216DAVISVP2,2013-09-04 07:22:00,
2013-09-04 00:27:00,75.5,52.0,29.78,North,360,7.0,7.0,44,0.00,,,0.00,WUHU216DAVISVP2,2013-09-04 07:27:00,
2013-09-04 00:32:00,75.3,51.9,29.78,North,360,6.0,8.0,44,0.00,,,0.00,WUHU216DAVISVP2,2013-09-04 07:32:00,
2013-09-04 00:37:00,75.2,51.8,29.78,North,360,6.0,8.0,44,0.00,,,0.00,WUHU216DAVISVP2,2013-09-04 07:37:00,
2013-09-04 00:42:00,75.2,51.8,29.78,North,360,5.0,8.0,44,0.00,,,0.00,WUHU216DAVISVP2,2013-09-04 07:42:00,
2013-09-04 00:47:00,75.0,51.6,29.78,North,360,5.0,8.0,44,0.00,,,0.00,WUHU216DAVISVP2,2013-09-04 07:47:00,
2013-09-04 00:52:00,74.5,51.1,29.78,North,360,4.0,8.0,44,0.00,,,0.00,WUHU216DAVISVP2,2013-09-04 07:52:00,
2013-09-04 00:57:00,74.0,51.9,29.78,North,360,2.0,6.0,46,0.00,,,0.00,WUHU216DAVISVP2,2013-09-04 07:57:00,
2013-09-04 01:02:00,73.9,51.2,29.78,North,360,2.0,6.0,45,0.00,,,0.00,WUHU216DAVISVP2,2013-09-04 08:02:00,
2013-09-04 01:07:00,73.4,50.8,29.78,North,360,1.0,5.0,45,0.00,,,0.00,WUHU216DAVISVP2,2013-09-04 08:07:00,
2013-09-04 01:12:00,72.8,50.8,29.78,North,360,3.0,4.0,46,0.00,,,0.00,WUHU216DAVISVP2,2013-09-04 08:12:00,
2013-09-04 01:18:00,72.6,51.2,29.78,North,360,4.0,6.0,47,0.00,,,0.00,WUHU216DAVISVP2,2013-09-04 08:18:00,
2013-09-04 01:23:00,72.8,51.4,29.78,North,360,4.0,6.0,47,0.00,,,0.00,WUHU216DAVISVP2,2013-09-04 08:23:00,
2013-09-04 01:28:00,72.5,50.5,29.78,North,360,4.0,6.0,46,0.00,,,0.00,WUHU216DAVISVP2,2013-09-04 08:28:00,
2013-09-04 01:33:00,72.4,50.4,29.78,North,360,3.0,6.0,46,0.00,,,0.00,WUHU216DAVISVP2,2013-09-04 08:33:00,
2013-09-04 01:38:00,72.2,49.7,29.78,North,360,3.0,6.0,45,0.00,,,0.00,WUHU216DAVISVP2,2013-09-04 08:38:00,
2013-09-04 01:43:00,72.2,49.7,29.78,North,360,3.0,6.0,45,0.00,,,0.00,WUHU216DAVISVP2,2013-09-04 08:43:00,
2013-09-04 01:48:00,72.1,50.2,29.78,North,360,0.0,5.0,46,0.00,,,0.00,WUHU216DAVISVP2,2013-09-04 08:48:00,
2013-09-04 01:53:00,71.6,50.3,29.78,North,360,3.0,5.0,47,0.00,,,0.00,WUHU216DAVISVP2,2013-09-04 08:53:00,
2013-09-04 01:58:00,71.1,49.9,29.78,North,360,3.0,4.0,47,0.00,,,0.00,WUHU216DAVISVP2,2013-09-04 08:58:00,
2013-09-04 02:03:00,71.4,50.1,29.78,North,360,4.0,5.0,47,0.00,,,0.00,WUHU216DAVISVP2,2013-09-04 09:03:00,
2013-09-04 02:08:00,72.2,49.7,29.78,North,360,5.0,8.0,45,0.00,,,0.00,WUHU216DAVISVP2,2013-09-04 09:08:00,
2013-09-04 02:13:00,72.5,49.9,29.78,North,360,3.0,8.0,45,0.00,,,0.00,WUHU216DAVISVP2,2013-09-04 09:13:00,
2013-09-04 02:18:00,72.5,49.9,29.78,North,360,4.0,8.0,45,0.00,,,0.00,WUHU216DAVISVP2,2013-09-04 09:18:00,
2013-09-04 02:23:00,72.6,49.4,29.78,North,360,2.0,7.0,44,0.00,,,0.00,WUHU216DAVISVP2,2013-09-04 09:23:00,
2013-09-04 02:28:00,72.6,50.0,29.78,North,360,2.0,5.0,45,0.00,,,0.00,WUHU216DAVISVP2,2013-09-04 09:28:00,
2013-09-04 02:33:00,72.4,49.3,29.78,North,360,3.0,5.0,44,0.00,,,0.00,WUHU216DAVISVP2,2013-09-04 09:33:00,
2013-09-04 02:38:00,72.2,49.1,29.78,North,360,2.0,5.0,44,0.00,,,0.00,WUHU216DAVISVP2,2013-09-04 09:38:00,
2013-09-04 02:43:00,71.8,49.3,29.78,North,360,3.0,5.0,45,0.00,,,0.00,WUHU216DAVISVP2,2013-09-04 09:43:00,
2013-09-04 02:48:00,71.6,49.1,29.78,North,360,3.0,4.0,45,0.00,,,0.00,WUHU216DAVISVP2,2013-09-04 09:48:00,
2013-09-04 02:53:00,71.3,49.4,29.78,North,360,2.0,4.0,46,0.00,,,0.00,WUHU216DAVISVP2,2013-09-04 09:53:00,
2013-09-04 02:58:00,71.0,49.2,29.78,North,360,4.0,4.0,46,0.00,,,0.00,WUHU216DAVISVP2,2013-09-04 09:58:00,
2013-09-04 03:03:00,71.2,49.4,29.78,North,360,3.0,4.0,46,0.00,,,0.00,WUHU216DAVISVP2,2013-09-04 10:03:00,
2013-09-04 03:08:00,71.0,48.6,29.78,North,360,2.0,4.0,45,0.00,,,0.00,WUHU216DAVISVP2,2013-09-04 10:08:00,
2013-09-04 03:13:00,70.6,48.2,29.78,North,360,3.0,4.0,45,0.00,,,0.00,WUHU216DAVISVP2,2013-09-04 10:13:00,
2013-09-04 03:18:00,70.1,48.3,29.78,North,360,3.0,4.0,46,0.00,,,0.00,WUHU216DAVISVP2,2013-09-04 10:18:00,
2013-09-04 03:23:00,70.0,48.3,29.79,North,360,1.0,4.0,46,0.00,,,0.00,WUHU216DAVISVP2,2013-09-04 10:23:00,
2013-09-04 03:28:00,70.1,48.3,29.79,North,360,3.0,4.0,46,0.00,,,0.00,WUHU216DAVISVP2,2013-09-04 10:28:00,
2013-09-04 03:33:00,70.3,48.5,29.79,North,360,1.0,4.0,46,0.00,,,0.00,WUHU216DAVISVP2,2013-09-04 10:33:00,
2013-09-04 03:38:00,70.2,47.8,29.79,North,360,0.0,4.0,45,0.00,,,0.00,WUHU216DAVISVP2,2013-09-04 10:38:00,
2013-09-04 03:43:00,69.7,48.0,29.79,North,360,2.0,4.0,46,0.00,,,0.00,WUHU216DAVISVP2,2013-09-04 10:43:00,
2013-09-04 03:54:00,69.2,47.5,29.79,North,360,0.0,3.0,46,0.00,,,0.00,WUHU216DAVISVP2,2013-09-04 10:54:00,
2013-09-04 04:04:00,68.9,47.8,29.79,North,360,4.0,5.0,47,0.00,,,0.00,WUHU216DAVISVP2,2013-09-04 11:04:00,
2013-09-04 04:15:00,68.7,47.7,29.78,North,360,2.0,6.0,47,0.00,,,0.00,WUHU216DAVISVP2,2013-09-04 11:15:00,
2013-09-04 04:33:00,69.3,48.2,29.79,NNW,328,2.0,8.0,47,0.00,,,0.00,WUHU216DAVISVP2,2013-09-04 11:33:00,
2013-09-04 04:38:00,69.0,47.9,29.79,NNW,328,2.0,8.0,47,0.00,,,0.00,WUHU216DAVISVP2,2013-09-04 11:38:00,
2013-09-04 04:43:00,69.1,48.6,29.79,NNW,329,3.0,7.0,48,0.00,,,0.00,WUHU216DAVISVP2,2013-09-04 11:43:00,
2013-09-04 04:48:00,69.8,49.2,29.79,NNW,331,2.0,6.0,48,0.00,,,0.00,WUHU216DAVISVP2,2013-09-04 11:48:00,
2013-09-04 04:53:00,69.8,48.7,29.79,NNW,331,3.0,6.0,47,0.00,,,0.00,WUHU216DAVISVP2,2013-09-04 11:53:00,
2013-09-04 04:58:00,69.3,48.2,29.79,NNW,331,0.0,6.0,47,0.00,,,0.00,WUHU216DAVISVP2,2013-09-04 11:58:00,
2013-09-04 05:03:00,68.9,48.4,29.79,NNW,331,3.0,6.0,48,0.00,,,0.00,WUHU216DAVISVP2,2013-09-04 12:03:00,
2013-09-04 05:08:00,69.3,48.2,29.79,NNW,331,2.0,4.0,47,0.00,,,0.00,WUHU216DAVISVP2,2013-09-04 12:08:00,
2013-09-04 05:13:00,69.7,48.6,29.79,NNW,331,1.0,4.0,47,0.00,,,0.00,WUHU216DAVISVP2,2013-09-04 12:13:00,
2013-09-04 05:18:00,69.7,48.6,29.80,NNW,331,1.0,4.0,47,0.00,,,0.00,WUHU216DAVISVP2,2013-09-04 12:18:00,
2013-09-04 05:23:00,69.6,48.5,29.80,NNW,331,4.0,4.0,47,0.00,,,0.00,WUHU216DAVISVP2,2013-09-04 12:23:00,
2013-09-04 05:28:00,69.6,47.9,29.80,NNW,331,2.0,4.0,46,0.00,,,0.00,WUHU216DAVISVP2,2013-09-04 12:28:00,
2013-09-04 05:33:00,69.0,47.9,29.80,NNW,331,1.0,4.0,47,0.00,,,0.00,WUHU216DAVISVP2,2013-09-04 12:33:00,
2013-09-04 05:38:00,68.9,47.8,29.80,NNW,331,4.0,5.0,47,0.00,,,0.00,WUHU216DAVISVP2,2013-09-04 12:38:00,
2013-09-04 05:43:00,68.8,47.7,29.81,NNW,331,4.0,5.0,47,0.00,,,0.00,WUHU216DAVISVP2,2013-09-04 12:43:00,
2013-09-04 05:48:00,68.3,47.8,29.81,NNW,331,4.0,5.0,48,0.00,,,0.00,WUHU216DAVISVP2,2013-09-04 12:48:00,
2013-09-04 05:53:00,68.2,47.8,29.81,NNW,331,5.0,5.0,48,0.00,,,0.00,WUHU216DAVISVP2,2013-09-04 12:53:00,
2013-09-04 05:58:00,68.2,47.8,29.81,NNW,331,4.0,5.0,48,0.00,,,0.00,WUHU216DAVISVP2,2013-09-04 12:58:00,
2013-09-04 06:03:00,67.9,47.5,29.81,NNW,331,3.0,6.0,48,0.00,,,0.00,WUHU216DAVISVP2,2013-09-04 13:03:00,
2013-09-04 06:08:00,67.5,48.2,29.81,NNW,331,4.0,6.0,50,0.00,,,0.00,WUHU216DAVISVP2,2013-09-04 13:08:00,
2013-09-04 06:13:00,67.3,47.5,29.81,NNW,331,2.0,6.0,49,0.00,,,0.00,WUHU216DAVISVP2,2013-09-04 13:13:00,
2013-09-04 06:18:00,67.4,47.6,29.81,NNW,331,3.0,6.0,49,0.00,,,0.00,WUHU216DAVISVP2,2013-09-04 13:18:00,
2013-09-04 06:23:00,67.7,48.4,29.81,NNW,331,1.0,5.0,50,0.00,,,0.00,WUHU216DAVISVP2,2013-09-04 13:23:00,
2013-09-04 06:29:00,67.6,48.3,29.81,NNW,331,0.0,5.0,50,0.00,,,0.00,WUHU216DAVISVP2,2013-09-04 13:29:00,
2013-09-04 06:34:00,67.4,48.2,29.82,NNW,331,1.0,5.0,50,0.00,,,0.00,WUHU216DAVISVP2,2013-09-04 13:34:00,
2013-09-04 06:39:00,67.9,48.1,29.82,NNW,331,0.0,4.0,49,0.00,,,0.00,WUHU216DAVISVP2,2013-09-04 13:39:00,
2013-09-04 06:44:00,67.8,48.0,29.82,West,277,3.0,5.0,49,0.00,,,0.00,WUHU216DAVISVP2,2013-09-04 13:44:00,
2013-09-04 06:49:00,68.0,48.2,29.82,West,278,0.0,5.0,49,0.00,,,0.00,WUHU216DAVISVP2,2013-09-04 13:49:00,
2013-09-04 06:54:00,68.4,48.5,29.83,West,278,0.0,5.0,49,0.00,,,0.00,WUHU216DAVISVP2,2013-09-04 13:54:00,
2013-09-04 06:59:00,68.8,48.9,29.83,West,278,0.0,5.0,49,0.00,,,0.00,WUHU216DAVISVP2,2013-09-04 13:59:00,
2013-09-04 07:04:00,69.6,49.1,29.83,West,278,3.0,4.0,48,0.00,,,0.00,WUHU216DAVISVP2,2013-09-04 14:04:00,
2013-09-04 07:09:00,69.9,48.7,29.83,West,278,2.0,4.0,47,0.00,,,0.00,WUHU216DAVISVP2,2013-09-04 14:09:00,
2013-09-04 07:14:00,69.9,49.3,29.83,West,278,2.0,4.0,48,0.00,,,0.00,WUHU216DAVISVP2,2013-09-04 14:14:00,
2013-09-04 07:19:00,70.2,49.6,29.83,West,278,0.0,4.0,48,0.00,,,0.00,WUHU216DAVISVP2,2013-09-04 14:19:00,
2013-09-04 07:24:00,70.7,49.5,29.84,West,278,0.0,4.0,47,0.00,,,0.00,WUHU216DAVISVP2,2013-09-04 14:24:00,
2013-09-04 07:29:00,71.5,50.2,29.84,West,278,0.0,3.0,47,0.00,,,0.00,WUHU216DAVISVP2,2013-09-04 14:29:00,
2013-09-04 07:34:00,72.2,49.7,29.84,West,278,0.0,2.0,45,0.00,,,0.00,WUHU216DAVISVP2,2013-09-04 14:34:00,
2013-09-04 07:39:00,72.9,49.7,29.83,West,278,2.0,4.0,44,0.00,,,0.00,WUHU216DAVISVP2,2013-09-04 14:39:00,
2013-09-04 07:44:00,73.4,50.1,29.83,West,278,0.0,4.0,44,0.00,,,0.00,WUHU216DAVISVP2,2013-09-04 14:44:00,
2013-09-04 07:49:00,74.1,50.1,29.83,West,278,0.0,4.0,43,0.00,,,0.00,WUHU216DAVISVP2,2013-09-04 14:49:00,
2013-09-04 07:54:00,75.5,50.7,29.83,West,278,0.0,4.0,42,0.00,,,0.00,WUHU216DAVISVP2,2013-09-04 14:54:00,
2013-09-04 07:59:00,76.7,50.5,29.83,West,278,0.0,3.0,40,0.00,,,0.00,WUHU216DAVISVP2,2013-09-04 14:59:00,
2013-09-04 08:04:00,78.0,50.9,29.83,West,278,0.0,2.0,39,0.00,,,0.00,WUHU216DAVISVP2,2013-09-04 15:04:00,
2013-09-04 08:09:00,78.4,51.3,29.83,West,278,1.0,3.0,39,0.00,,,0.00,WUHU216DAVISVP2,2013-09-04 15:09:00,
2013-09-04 08:14:00,78.8,50.9,29.83,West,278,1.0,3.0,38,0.00,,,0.00,WUHU216DAVISVP2,2013-09-04 15:14:00,
2013-09-04 08:19:00,79.4,51.5,29.83,West,278,1.0,3.0,38,0.00,,,0.00,WUHU216DAVISVP2,2013-09-04 15:19:00,
2013-09-04 08:24:00,79.9,51.9,29.83,West,278,2.0,4.0,38,0.00,,,0.00,WUHU216DAVISVP2,2013-09-04 15:24:00,
2013-09-04 08:29:00,80.2,51.4,29.83,SSW,196,2.0,6.0,37,0.00,,,0.00,WUHU216DAVISVP2,2013-09-04 15:29:00,
2013-09-04 08:34:00,80.6,51.8,29.83,SSW,196,0.0,6.0,37,0.00,,,0.00,WUHU216DAVISVP2,2013-09-04 15:34:00,
2013-09-04 08:39:00,81.0,51.4,29.83,SSW,193,3.0,6.0,36,0.00,,,0.00,WUHU216DAVISVP2,2013-09-04 15:39:00,
2013-09-04 08:44:00,81.4,51.8,29.83,SSW,192,2.0,6.0,36,0.00,,,0.00,WUHU216DAVISVP2,2013-09-04 15:44:00,
2013-09-04 08:49:00,81.8,52.1,29.83,SSW,192,3.0,4.0,36,0.00,,,0.00,WUHU216DAVISVP2,2013-09-04 15:49:00,
2013-09-04 08:54:00,81.8,52.9,29.83,South,178,3.0,4.0,37,0.00,,,0.00,WUHU216DAVISVP2,2013-09-04 15:54:00,
2013-09-04 08:59:00,82.1,52.4,29.83,South,188,5.0,5.0,36,0.00,,,0.00,WUHU216DAVISVP2,2013-09-04 15:59:00,
2013-09-04 09:04:00,82.0,52.3,29.83,South,189,1.0,5.0,36,0.00,,,0.00,WUHU216DAVISVP2,2013-09-04 16:04:00,
2013-09-04 09:09:00,82.3,52.6,29.83,South,188,3.0,5.0,36,0.00,,,0.00,WUHU216DAVISVP2,2013-09-04 16:09:00,
2013-09-04 09:14:00,82.8,53.1,29.83,ESE,120,3.0,8.0,36,0.00,,,0.00,WUHU216DAVISVP2,2013-09-04 16:14:00,
2013-09-04 09:20:00,83.3,52.8,29.83,South,177,5.0,8.0,35,0.00,,,0.00,WUHU216DAVISVP2,2013-09-04 16:20:00,
2013-09-04 09:25:00,83.4,52.9,29.83,ESE,112,7.0,9.0,35,0.00,,,0.00,WUHU216DAVISVP2,2013-09-04 16:25:00,
2013-09-04 09:30:00,83.4,52.8,29.83,ESE,118,5.0,9.0,35,0.00,,,0.00,WUHU216DAVISVP2,2013-09-04 16:30:00,
2013-09-04 09:35:00,83.2,52.6,29.83,SE,134,1.0,9.0,35,0.00,,,0.00,WUHU216DAVISVP2,2013-09-04 16:35:00,
2013-09-04 09:40:00,83.7,52.2,29.84,SE,134,2.0,9.0,34,0.00,,,0.00,WUHU216DAVISVP2,2013-09-04 16:40:00,
2013-09-04 09:45:00,84.3,52.8,29.84,SE,136,7.0,8.0,34,0.00,,,0.00,WUHU216DAVISVP2,2013-09-04 16:45:00,
2013-09-04 09:50:00,84.7,53.1,29.84,South,175,10.0,10.0,34,0.00,,,0.00,WUHU216DAVISVP2,2013-09-04 16:50:00,
2013-09-04 09:55:00,84.4,52.8,29.84,South,177,10.0,10.0,34,0.00,,,0.00,WUHU216DAVISVP2,2013-09-04 16:55:00,
2013-09-04 10:00:00,84.4,52.0,29.84,SSE,165,5.0,10.0,33,0.00,,,0.00,WUHU216DAVISVP2,2013-09-04 17:00:00,
2013-09-04 10:05:00,84.3,51.9,29.84,South,176,7.0,10.0,33,0.00,,,0.00,WUHU216DAVISVP2,2013-09-04 17:05:00,
2013-09-04 10:10:00,84.3,52.8,29.84,South,171,7.0,11.0,34,0.00,,,0.00,WUHU216DAVISVP2,2013-09-04 17:10:00,
2013-09-04 10:15:00,84.5,52.9,29.84,SSE,155,8.0,11.0,34,0.00,,,0.00,WUHU216DAVISVP2,2013-09-04 17:15:00,
2013-09-04 10:20:00,84.8,52.4,29.84,SSE,155,5.0,11.0,33,0.00,,,0.00,WUHU216DAVISVP2,2013-09-04 17:20:00,
2013-09-04 10:25:00,85.3,52.9,29.84,SSE,160,8.0,11.0,33,0.00,,,0.00,WUHU216DAVISVP2,2013-09-04 17:25:00,
2013-09-04 10:30:00,86.0,52.7,29.84,SSE,157,7.0,10.0,32,0.00,,,0.00,WUHU216DAVISVP2,2013-09-04 17:30:00,
2013-09-04 10:35:00,86.2,51.9,29.84,SSE,149,7.0,11.0,31,0.00,,,0.00,WUHU216DAVISVP2,2013-09-04 17:35:00,
2013-09-04 10:40:00,86.4,52.1,29.84,SSE,168,8.0,13.0,31,0.00,,,0.00,WUHU216DAVISVP2,2013-09-04 17:40:00,
2013-09-04 10:45:00,86.3,52.0,29.84,SSE,151,9.0,13.0,31,0.00,,,0.00,WUHU216DAVISVP2,2013-09-04 17:45:00,
2013-09-04 10:50:00,86.3,52.0,29.84,SSE,161,7.0,13.0,31,0.00,,,0.00,WUHU216DAVISVP2,2013-09-04 17:50:00,
2013-09-04 10:55:00,86.7,50.5,29.83,South,169,3.0,13.0,29,0.00,,,0.00,WUHU216DAVISVP2,2013-09-04 17:55:00,
2013-09-04 11:00:00,86.7,51.4,29.83,South,172,6.0,13.0,30,0.00,,,0.00,WUHU216DAVISVP2,2013-09-04 18:00:00,
2013-09-04 11:05:00,87.3,52.0,29.83,South,178,9.0,13.0,30,0.00,,,0.00,WUHU216DAVISVP2,2013-09-04 18:05:00,
2013-09-04 11:10:00,88.0,51.6,29.83,South,173,8.0,14.0,29,0.00,,,0.00,WUHU216DAVISVP2,2013-09-04 18:10:00,
2013-09-04 11:15:00,88.8,51.4,29.83,SE,132,7.0,14.0,28,0.00,,,0.00,WUHU216DAVISVP2,2013-09-04 18:15:00,
2013-09-04 11:20:00,89.4,51.9,29.83,SSE,161,7.0,14.0,28,0.00,,,0.00,WUHU216DAVISVP2,2013-09-04 18:20:00,
2013-09-04 11:25:00,89.5,51.1,29.82,South,169,4.0,14.0,27,0.00,,,0.00,WUHU216DAVISVP2,2013-09-04 18:25:00,
2013-09-04 11:30:00,90.1,51.6,29.82,ESE,122,7.0,13.0,27,0.00,,,0.00,WUHU216DAVISVP2,2013-09-04 18:30:00,
2013-09-04 11:35:00,90.4,51.8,29.82,SE,125,7.0,13.0,27,0.00,,,0.00,WUHU216DAVISVP2,2013-09-04 18:35:00,
2013-09-04 11:40:00,90.9,51.2,29.82,SSE,153,5.0,13.0,26,0.00,,,0.00,WUHU216DAVISVP2,2013-09-04 18:40:00,
2013-09-04 11:45:00,91.2,51.5,29.82,South,176,6.0,12.0,26,0.00,,,0.00,WUHU216DAVISVP2,2013-09-04 18:45:00,
2013-09-04 11:50:00,91.2,51.5,29.82,South,175,8.0,16.0,26,0.00,,,0.00,WUHU216DAVISVP2,2013-09-04 18:50:00,
2013-09-04 11:55:00,91.1,51.4,29.81,SSE,166,8.0,16.0,26,0.00,,,0.00,WUHU216DAVISVP2,2013-09-04 18:55:00,
2013-09-04 12:00:00,91.3,51.5,29.81,SE,138,5.0,16.0,26,0.00,,,0.00,WUHU216DAVISVP2,2013-09-04 19:00:00,
2013-09-04 12:05:00,92.1,51.2,29.81,SSE,161,9.0,16.0,25,0.00,,,0.00,WUHU216DAVISVP2,2013-09-04 19:05:00,
2013-09-04 12:10:00,92.3,51.3,29.81,SE,138,5.0,14.0,25,0.00,,,0.00,WUHU216DAVISVP2,2013-09-04 19:10:00,
2013-09-04 12:15:00,92.5,50.4,29.81,South,186,9.0,14.0,24,0.00,,,0.00,WUHU216DAVISVP2,2013-09-04 19:15:00,
2013-09-04 12:20:00,92.8,50.7,29.81,SSE,166,6.0,14.0,24,0.00,,,0.00,WUHU216DAVISVP2,2013-09-04 19:20:00,
2013-09-04 12:25:00,92.8,49.6,29.80,SE,146,9.0,16.0,23,0.00,,,0.00,WUHU216DAVISVP2,2013-09-04 19:25:00,
2013-09-04 12:30:00,92.9,49.6,29.80,SSE,148,7.0,16.0,23,0.00,,,0.00,WUHU216DAVISVP2,2013-09-04 19:30:00,
2013-09-04 12:36:00,93.2,49.9,29.80,SSE,167,8.0,16.0,23,0.00,,,0.00,WUHU216DAVISVP2,2013-09-04 19:36:00,
2013-09-04 12:41:00,93.3,48.8,29.79,South,171,7.0,18.0,22,0.00,,,0.00,WUHU216DAVISVP2,2013-09-04 19:41:00,
2013-09-04 12:46:00,93.7,49.1,29.79,SSE,167,5.0,18.0,22,0.00,,,0.00,WUHU216DAVISVP2,2013-09-04 19:46:00,
2013-09-04 12:51:00,94.4,49.7,29.79,SSE,150,10.0,18.0,22,0.00,,,0.00,WUHU216DAVISVP2,2013-09-04 19:51:00,
2013-09-04 12:56:00,94.5,48.5,29.79,ESE,112,4.0,18.0,21,0.00,,,0.00,WUHU216DAVISVP2,2013-09-04 19:56:00,
2013-09-04 13:01:00,94.4,48.5,29.79,SE,141,8.0,15.0,21,0.00,,,0.00,WUHU216DAVISVP2,2013-09-04 20:01:00,
2013-09-04 13:06:00,94.2,49.5,29.78,East,91,10.0,15.0,22,0.00,,,0.00,WUHU216DAVISVP2,2013-09-04 20:06:00,
2013-09-04 13:11:00,94.8,48.8,29.78,SE,144,12.0,15.0,21,0.00,,,0.00,WUHU216DAVISVP2,2013-09-04 20:11:00,
2013-09-04 13:16:00,94.5,48.5,29.78,SSE,159,4.0,15.0,21,0.00,,,0.00,WUHU216DAVISVP2,2013-09-04 20:16:00,
2013-09-04 13:21:00,94.8,47.5,29.78,South,180,14.0,15.0,20,0.00,,,0.00,WUHU216DAVISVP2,2013-09-04 20:21:00,
2013-09-04 13:26:00,94.7,47.4,29.78,South,169,8.0,15.0,20,0.00,,,0.00,WUHU216DAVISVP2,2013-09-04 20:26:00,
2013-09-04 13:31:00,94.8,47.5,29.78,SSE,151,3.0,15.0,20,0.00,,,0.00,WUHU216DAVISVP2,2013-09-04 20:31:00,
2013-09-04 13:36:00,95.3,47.9,29.78,ESE,107,5.0,15.0,20,0.00,,,0.00,WUHU216DAVISVP2,2013-09-04 20:36:00,
2013-09-04 13:41:00,95.2,46.5,29.77,East,96,2.0,13.0,19,0.00,,,0.00,WUHU216DAVISVP2,2013-09-04 20:41:00,
2013-09-04 13:46:00,95.6,46.8,29.77,SSW,202,13.0,14.0,19,0.00,,,0.00,WUHU216DAVISVP2,2013-09-04 20:46:00,
2013-09-04 13:51:00,96.0,45.7,29.77,ESE,102,3.0,15.0,18,0.00,,,0.00,WUHU216DAVISVP2,2013-09-04 20:51:00,
2013-09-04 13:56:00,96.3,45.9,29.77,SE,137,5.0,15.0,18,0.00,,,0.00,WUHU216DAVISVP2,2013-09-04 20:56:00,
2013-09-04 14:01:00,96.0,47.1,29.76,ESE,109,5.0,15.0,19,0.00,,,0.00,WUHU216DAVISVP2,2013-09-04 21:01:00,
2013-09-04 14:06:00,96.0,47.1,29.76,SE,126,8.0,14.0,19,0.00,,,0.00,WUHU216DAVISVP2,2013-09-04 21:06:00,
2013-09-04 14:11:00,96.5,46.1,29.76,East,88,11.0,14.0,18,0.00,,,0.00,WUHU216DAVISVP2,2013-09-04 21:11:00,
2013-09-04 14:16:00,96.3,44.4,29.75,SE,140,13.0,18.0,17,0.00,,,0.00,WUHU216DAVISVP2,2013-09-04 21:16:00,
2013-09-04 14:21:00,96.6,44.7,29.75,South,179,11.0,18.0,17,0.00,,,0.00,WUHU216DAVISVP2,2013-09-04 21:21:00,
2013-09-04 14:26:00,96.7,44.7,29.75,SSE,157,10.0,18.0,17,0.00,,,0.00,WUHU216DAVISVP2,2013-09-04 21:26:00,
2013-09-04 14:31:00,96.8,44.8,29.75,SSE,156,8.0,18.0,17,0.00,,,0.00,WUHU216DAVISVP2,2013-09-04 21:31:00,
2013-09-04 14:36:00,96.5,44.6,29.75,SSE,161,5.0,15.0,17,0.00,,,0.00,WUHU216DAVISVP2,2013-09-04 21:36:00,
2013-09-04 14:41:00,97.4,45.3,29.74,SSE,158,13.0,18.0,17,0.00,,,0.00,WUHU216DAVISVP2,2013-09-04 21:41:00,
2013-09-04 14:46:00,97.5,45.4,29.74,SSE,154,9.0,18.0,17,0.00,,,0.00,WUHU216DAVISVP2,2013-09-04 21:46:00,
2013-09-04 14:51:00,97.3,45.2,29.74,SW,221,5.0,18.0,17,0.00,,,0.00,WUHU216DAVISVP2,2013-09-04 21:51:00,
2013-09-04 14:56:00,97.9,44.1,29.74,SSE,161,5.0,18.0,16,0.00,,,0.00,WUHU216DAVISVP2,2013-09-04 21:56:00,
2013-09-04 15:01:00,98.0,42.5,29.74,South,173,9.0,18.0,15,0.00,,,0.00,WUHU216DAVISVP2,2013-09-04 22:01:00,
2013-09-04 15:06:00,98.0,44.2,29.73,ESE,113,7.0,18.0,16,0.00,,,0.00,WUHU216DAVISVP2,2013-09-04 22:06:00,
2013-09-04 15:11:00,98.5,42.8,29.73,SSW,197,16.0,18.0,15,0.00,,,0.00,WUHU216DAVISVP2,2013-09-04 22:11:00,
2013-09-04 15:16:00,98.2,42.6,29.73,South,174,7.0,18.0,15,0.00,,,0.00,WUHU216DAVISVP2,2013-09-04 22:16:00,
2013-09-04 15:21:00,98.5,44.6,29.73,SSE,149,11.0,18.0,16,0.00,,,0.00,WUHU216DAVISVP2,2013-09-04 22:21:00,
2013-09-04 15:26:00,98.4,42.8,29.73,South,175,18.0,21.0,15,0.00,,,0.00,WUHU216DAVISVP2,2013-09-04 22:26:00,
2013-09-04 15:31:00,98.0,44.2,29.72,SSE,152,10.0,21.0,16,0.00,,,0.00,WUHU216DAVISVP2,2013-09-04 22:31:00,
2013-09-04 15:37:00,97.8,44.0,29.72,SE,136,5.0,21.0,16,0.00,,,0.00,WUHU216DAVISVP2,2013-09-04 22:37:00,
2013-09-04 15:42:00,98.0,44.2,29.72,SE,142,9.0,21.0,16,0.00,,,0.00,WUHU216DAVISVP2,2013-09-04 22:42:00,
2013-09-04 15:47:00,98.4,42.8,29.71,SE,138,8.0,17.0,15,0.00,,,0.00,WUHU216DAVISVP2,2013-09-04 22:47:00,
2013-09-04 15:52:00,98.8,41.3,29.71,SE,144,5.0,17.0,14,0.00,,,0.00,WUHU216DAVISVP2,2013-09-04 22:52:00,
2013-09-04 15:57:00,98.9,43.2,29.71,SE,144,9.0,17.0,15,0.00,,,0.00,WUHU216DAVISVP2,2013-09-04 22:57:00,
2013-09-04 16:02:00,98.6,42.9,29.71,SSE,163,9.0,16.0,15,0.00,,,0.00,WUHU216DAVISVP2,2013-09-04 23:02:00,
2013-09-04 16:07:00,97.7,42.2,29.70,ESE,123,8.0,17.0,15,0.00,,,0.00,WUHU216DAVISVP2,2013-09-04 23:07:00,
2013-09-04 16:12:00,98.0,44.2,29.71,SSE,163,10.0,22.0,16,0.00,,,0.00,WUHU216DAVISVP2,2013-09-04 23:12:00,
2013-09-04 16:17:00,98.6,43.0,29.71,SE,141,4.0,22.0,15,0.00,,,0.00,WUHU216DAVISVP2,2013-09-04 23:17:00,
2013-09-04 16:22:00,98.3,44.4,29.70,SSE,155,11.0,22.0,16,0.00,,,0.00,WUHU216DAVISVP2,2013-09-04 23:22:00,
2013-09-04 16:27:00,97.7,43.9,29.70,SE,143,13.0,22.0,16,0.00,,,0.00,WUHU216DAVISVP2,2013-09-04 23:27:00,
2013-09-04 16:32:00,97.7,43.9,29.71,ESE,122,9.0,16.0,16,0.00,,,0.00,WUHU216DAVISVP2,2013-09-04 23:32:00,
2013-09-04 16:37:00,97.6,43.8,29.71,SSW,202,10.0,16.0,16,0.00,,,0.00,WUHU216DAVISVP2,2013-09-04 23:37:00,
2013-09-04 16:42:00,97.8,42.3,29.71,SE,144,12.0,24.0,15,0.00,,,0.00,WUHU216DAVISVP2,2013-09-04 23:42:00,
2013-09-04 16:47:00,97.6,42.2,29.71,SE,146,12.0,24.0,15,0.00,,,0.00,WUHU216DAVISVP2,2013-09-04 23:47:00,
2013-09-04 16:52:00,97.7,42.2,29.71,South,186,4.0,24.0,15,0.00,,,0.00,WUHU216DAVISVP2,2013-09-04 23:52:00,
2013-09-04 16:57:00,97.9,40.5,29.71,SSE,163,13.0,24.0,14,0.00,,,0.00,WUHU216DAVISVP2,2013-09-04 23:57:00,
2013-09-04 17:02:00,97.8,40.5,29.71,South,177,8.0,21.0,14,0.00,,,0.00,WUHU216DAVISVP2,2013-09-05 00:02:00,
2013-09-04 17:07:00,98.0,42.5,29.71,South,179,12.0,19.0,15,0.00,,,0.00,WUHU216DAVISVP2,2013-09-05 00:07:00,
2013-09-04 17:12:00,98.0,42.5,29.71,South,173,9.0,19.0,15,0.00,,,0.00,WUHU216DAVISVP2,2013-09-05 00:12:00,
2013-09-04 17:17:00,98.5,41.0,29.70,SE,142,10.0,18.0,14,0.00,,,0.00,WUHU216DAVISVP2,2013-09-05 00:17:00,
2013-09-04 17:22:00,99.0,48.1,29.71,South,174,12.0,20.0,18,0.00,,,0.00,WUHU216DAVISVP2,2013-09-05 00:22:00,
2013-09-04 17:27:00,96.4,52.6,29.71,South,180,14.0,30.0,23,0.00,,,0.00,WUHU216DAVISVP2,2013-09-05 00:27:00,
2013-09-04 17:32:00,95.0,52.5,29.72,SSE,156,11.0,30.0,24,0.00,,,0.00,WUHU216DAVISVP2,2013-09-05 00:32:00,
2013-09-04 17:37:00,94.4,52.0,29.72,SSE,163,11.0,30.0,24,0.00,,,0.00,WUHU216DAVISVP2,2013-09-05 00:37:00,
2013-09-04 17:42:00,94.8,51.2,29.72,SSE,159,17.0,27.0,23,0.00,,,0.00,WUHU216DAVISVP2,2013-09-05 00:42:00,
2013-09-04 17:47:00,94.9,51.3,29.72,SE,136,19.0,24.0,23,0.00,,,0.00,WUHU216DAVISVP2,2013-09-05 00:47:00,
2013-09-04 17:52:00,95.0,51.4,29.72,SSE,160,15.0,22.0,23,0.00,,,0.00,WUHU216DAVISVP2,2013-09-05 00:52:00,
2013-09-04 17:58:00,94.5,51.0,29.73,SE,141,19.0,23.0,23,0.00,,,0.00,WUHU216DAVISVP2,2013-09-05 00:58:00,
2013-09-04 18:03:00,94.3,50.8,29.72,SSE,165,10.0,23.0,23,0.00,,,0.00,WUHU216DAVISVP2,2013-09-05 01:03:00,
2013-09-04 18:08:00,93.7,51.4,29.72,SSE,157,9.0,23.0,24,0.00,,,0.00,WUHU216DAVISVP2,2013-09-05 01:08:00,
2013-09-04 18:13:00,93.7,51.4,29.73,SSE,165,12.0,22.0,24,0.00,,,0.00,WUHU216DAVISVP2,2013-09-05 01:13:00,
2013-09-04 18:18:00,93.4,53.3,29.73,South,185,8.0,22.0,26,0.00,,,0.00,WUHU216DAVISVP2,2013-09-05 01:18:00,
2013-09-04 18:23:00,92.6,54.7,29.73,South,184,11.0,22.0,28,0.00,,,0.00,WUHU216DAVISVP2,2013-09-05 01:23:00,
2013-09-04 18:28:00,91.9,54.1,29.73,SSW,211,7.0,18.0,28,0.00,,,0.00,WUHU216DAVISVP2,2013-09-05 01:28:00,
2013-09-04 18:33:00,91.8,54.0,29.73,SSW,195,10.0,18.0,28,0.00,,,0.00,WUHU216DAVISVP2,2013-09-05 01:33:00,
2013-09-04 18:38:00,91.5,52.7,29.73,South,184,13.0,17.0,27,0.00,,,0.00,WUHU216DAVISVP2,2013-09-05 01:38:00,
2013-09-04 18:43:00,91.5,52.7,29.73,SSW,213,12.0,18.0,27,0.00,,,0.00,WUHU216DAVISVP2,2013-09-05 01:43:00,
2013-09-04 18:48:00,91.3,52.6,29.73,SSW,207,9.0,18.0,27,0.00,,,0.00,WUHU216DAVISVP2,2013-09-05 01:48:00,
2013-09-04 18:53:00,91.1,52.4,29.74,SSW,194,9.0,17.0,27,0.00,,,0.00,WUHU216DAVISVP2,2013-09-05 01:53:00,
2013-09-04 18:58:00,91.0,52.3,29.74,South,184,8.0,17.0,27,0.00,,,0.00,WUHU216DAVISVP2,2013-09-05 01:58:00,
2013-09-04 19:03:00,90.9,51.2,29.74,South,174,9.0,17.0,26,0.00,,,0.00,WUHU216DAVISVP2,2013-09-05 02:03:00,
2013-09-04 19:08:00,90.9,51.2,29.74,South,190,10.0,17.0,26,0.00,,,0.00,WUHU216DAVISVP2,2013-09-05 02:08:00,
2013-09-04 19:13:00,90.8,52.1,29.74,SSW,197,10.0,15.0,27,0.00,,,0.00,WUHU216DAVISVP2,2013-09-05 02:13:00,
2013-09-04 19:18:00,90.6,52.0,29.74,South,188,8.0,14.0,27,0.00,,,0.00,WUHU216DAVISVP2,2013-09-05 02:18:00,
2013-09-04 19:23:00,90.3,51.7,29.74,SSW,197,6.0,14.0,27,0.00,,,0.00,WUHU216DAVISVP2,2013-09-05 02:23:00,
2013-09-04 19:28:00,90.2,51.6,29.74,SSW,196,7.0,14.0,27,0.00,,,0.00,WUHU216DAVISVP2,2013-09-05 02:28:00,
2013-09-04 19:33:00,90.1,51.5,29.74,SSW,199,4.0,14.0,27,0.00,,,0.00,WUHU216DAVISVP2,2013-09-05 02:33:00,
2013-09-04 19:38:00,89.9,51.4,29.74,South,186,7.0,10.0,27,0.00,,,0.00,WUHU216DAVISVP2,2013-09-05 02:38:00,
2013-09-04 19:43:00,89.8,51.3,29.75,South,182,4.0,8.0,27,0.00,,,0.00,WUHU216DAVISVP2,2013-09-05 02:43:00,
2013-09-04 19:48:00,89.7,51.2,29.75,South,184,5.0,8.0,27,0.00,,,0.00,WUHU216DAVISVP2,2013-09-05 02:48:00,
2013-09-04 19:53:00,89.7,51.2,29.75,SW,216,5.0,9.0,27,0.00,,,0.00,WUHU216DAVISVP2,2013-09-05 02:53:00,
2013-09-04 19:58:00,89.6,51.1,29.75,SSW,212,6.0,10.0,27,0.00,,,0.00,WUHU216DAVISVP2,2013-09-05 02:58:00,
2013-09-04 20:03:00,89.6,51.1,29.75,SSW,201,7.0,10.0,27,0.00,,,0.00,WUHU216DAVISVP2,2013-09-05 03:03:00,
2013-09-04 20:08:00,89.5,51.0,29.75,SW,220,7.0,10.0,27,0.00,,,0.00,WUHU216DAVISVP2,2013-09-05 03:08:00,
2013-09-04 20:13:00,89.4,49.9,29.75,SSW,208,4.0,10.0,26,0.00,,,0.00,WUHU216DAVISVP2,2013-09-05 03:13:00,
2013-09-04 20:18:00,89.1,49.7,29.75,SW,233,5.0,10.0,26,0.00,,,0.00,WUHU216DAVISVP2,2013-09-05 03:18:00,
2013-09-04 20:23:00,88.9,49.5,29.75,WSW,239,4.0,10.0,26,0.00,,,0.00,WUHU216DAVISVP2,2013-09-05 03:23:00,
2013-09-04 20:28:00,88.7,49.3,29.75,SW,219,2.0,10.0,26,0.00,,,0.00,WUHU216DAVISVP2,2013-09-05 03:28:00,
2013-09-04 20:33:00,88.5,49.2,29.75,SW,224,5.0,9.0,26,0.00,,,0.00,WUHU216DAVISVP2,2013-09-05 03:33:00,
2013-09-04 20:39:00,88.2,48.9,29.75,SW,227,5.0,9.0,26,0.00,,,0.00,WUHU216DAVISVP2,2013-09-05 03:39:00,
2013-09-04 20:44:00,88.0,48.7,29.75,SW,232,7.0,9.0,26,0.00,,,0.00,WUHU216DAVISVP2,2013-09-05 03:44:00,
2013-09-04 20:49:00,87.9,48.6,29.75,SW,234,3.0,8.0,26,0.00,,,0.00,WUHU216DAVISVP2,2013-09-05 03:49:00,
2013-09-04 20:54:00,87.7,48.5,29.75,SW,230,2.0,8.0,26,0.00,,,0.00,WUHU216DAVISVP2,2013-09-05 03:54:00,
2013-09-04 20:59:00,87.5,48.3,29.76,SW,230,0.0,8.0,26,0.00,,,0.00,WUHU216DAVISVP2,2013-09-05 03:59:00,
2013-09-04 21:04:00,87.3,48.1,29.76,SW,230,0.0,8.0,26,0.00,,,0.00,WUHU216DAVISVP2,2013-09-05 04:04:00,
2013-09-04 21:09:00,87.3,48.1,29.76,SW,230,2.0,8.0,26,0.00,,,0.00,WUHU216DAVISVP2,2013-09-05 04:09:00,
2013-09-04 21:14:00,87.0,47.9,29.77,SW,230,0.0,4.0,26,0.00,,,0.00,WUHU216DAVISVP2,2013-09-05 04:14:00,
2013-09-04 21:19:00,85.9,46.9,29.77,SW,230,2.0,4.0,26,0.00,,,0.00,WUHU216DAVISVP2,2013-09-05 04:19:00,
2013-09-04 21:24:00,85.1,47.3,29.77,SW,236,4.0,5.0,27,0.00,,,0.00,WUHU216DAVISVP2,2013-09-05 04:24:00,
2013-09-04 21:29:00,84.3,47.5,29.77,SW,236,1.0,5.0,28,0.00,,,0.00,WUHU216DAVISVP2,2013-09-05 04:29:00,
2013-09-04 21:34:00,83.6,47.0,29.77,SW,236,2.0,5.0,28,0.00,,,0.00,WUHU216DAVISVP2,2013-09-05 04:34:00,
2013-09-04 21:39:00,83.2,47.6,29.77,SW,236,2.0,5.0,29,0.00,,,0.00,WUHU216DAVISVP2,2013-09-05 04:39:00,
2013-09-04 21:44:00,82.9,47.4,29.77,SW,236,0.0,4.0,29,0.00,,,0.00,WUHU216DAVISVP2,2013-09-05 04:44:00,
2013-09-04 21:49:00,82.5,47.0,29.77,SW,236,0.0,4.0,29,0.00,,,0.00,WUHU216DAVISVP2,2013-09-05 04:49:00,
2013-09-04 21:54:00,82.1,46.6,29.77,SW,236,0.0,4.0,29,0.00,,,0.00,WUHU216DAVISVP2,2013-09-05 04:54:00,
2013-09-04 21:59:00,82.1,47.5,29.77,SW,214,5.0,7.0,30,0.00,,,0.00,WUHU216DAVISVP2,2013-09-05 04:59:00,
2013-09-04 22:04:00,83.4,48.6,29.77,SSW,209,7.0,8.0,30,0.00,,,0.00,WUHU216DAVISVP2,2013-09-05 05:04:00,
2013-09-04 22:09:00,84.5,48.6,29.77,SW,232,8.0,11.0,29,0.00,,,0.00,WUHU216DAVISVP2,2013-09-05 05:09:00,
2013-09-04 22:14:00,85.0,49.2,29.77,SSW,206,9.0,11.0,29,0.00,,,0.00,WUHU216DAVISVP2,2013-09-05 05:14:00,
2013-09-04 22:19:00,85.4,48.6,29.77,SW,221,7.0,11.0,28,0.00,,,0.00,WUHU216DAVISVP2,2013-09-05 05:19:00,
2013-09-04 22:24:00,85.2,48.4,29.77,SW,215,7.0,10.0,28,0.00,,,0.00,WUHU216DAVISVP2,2013-09-05 05:24:00,
2013-09-04 22:29:00,85.5,48.6,29.77,SSW,208,5.0,10.0,28,0.00,,,0.00,WUHU216DAVISVP2,2013-09-05 05:29:00,
2013-09-04 22:34:00,85.6,48.6,29.77,SSW,208,0.0,10.0,28,0.00,,,0.00,WUHU216DAVISVP2,2013-09-05 05:34:00,
2013-09-04 22:39:00,84.7,47.9,29.77,WNW,300,2.0,10.0,28,0.00,,,0.00,WUHU216DAVISVP2,2013-09-05 05:39:00,
2013-09-04 22:44:00,83.6,47.9,29.77,North,355,7.0,7.0,29,0.00,,,0.00,WUHU216DAVISVP2,2013-09-05 05:44:00,
2013-09-04 22:49:00,82.8,48.1,29.78,North,355,5.0,7.0,30,0.00,,,0.00,WUHU216DAVISVP2,2013-09-05 05:49:00,
2013-09-04 22:54:00,82.1,47.5,29.78,North,355,4.0,7.0,30,0.00,,,0.00,WUHU216DAVISVP2,2013-09-05 05:54:00,
2013-09-04 22:59:00,81.5,47.8,29.78,North,5,4.0,7.0,31,0.00,,,0.00,WUHU216DAVISVP2,2013-09-05 05:59:00,
2013-09-04 23:04:00,81.2,47.5,29.77,North,5,2.0,6.0,31,0.00,,,0.00,WUHU216DAVISVP2,2013-09-05 06:04:00,
2013-09-04 23:09:00,80.5,47.8,29.78,North,5,1.0,6.0,32,0.00,,,0.00,WUHU216DAVISVP2,2013-09-05 06:09:00,
2013-09-04 23:14:00,79.9,47.3,29.78,North,5,1.0,6.0,32,0.00,,,0.00,WUHU216DAVISVP2,2013-09-05 06:14:00,
2013-09-04 23:20:00,79.1,47.4,29.78,North,5,2.0,4.0,33,0.00,,,0.00,WUHU216DAVISVP2,2013-09-05 06:20:00,
2013-09-04 23:25:00,78.9,48.0,29.78,North,5,2.0,5.0,34,0.00,,,0.00,WUHU216DAVISVP2,2013-09-05 06:25:00,
2013-09-04 23:30:00,78.9,48.0,29.78,North,5,2.0,5.0,34,0.00,,,0.00,WUHU216DAVISVP2,2013-09-05 06:30:00,
2013-09-04 23:35:00,79.4,48.4,29.78,NNW,346,6.0,8.0,34,0.00,,,0.00,WUHU216DAVISVP2,2013-09-05 06:35:00,
2013-09-04 23:40:00,79.5,47.7,29.78,NNW,347,4.0,8.0,33,0.00,,,0.00,WUHU216DAVISVP2,2013-09-05 06:40:00,
2013-09-04 23:45:00,78.8,47.9,29.78,NNW,347,4.0,8.0,34,0.00,,,0.00,WUHU216DAVISVP2,2013-09-05 06:45:00,
2013-09-04 23:50:00,78.3,47.5,29.78,NNW,347,3.0,8.0,34,0.00,,,0.00,WUHU216DAVISVP2,2013-09-05 06:50:00,
2013-09-04 23:55:00,78.3,48.2,29.78,North,355,5.0,7.0,35,0.00,,,0.00,WUHU216DAVISVP2,2013-09-05 06:55:00,